createdAt,value
2018-02-11T00:01:40.192Z,98569.77
2018-02-11T00:04:08.277Z,98574.38
2018-02-11T00:06:35.818Z,98573.16
2018-02-11T00:09:03.808Z,98575.91
2018-02-11T00:11:32.208Z,98568.24
2018-02-11T00:14:00.413Z,98561.23
2018-02-11T00:16:27.952Z,98562.41
2018-02-11T00:18:55.519Z,98562.61
2018-02-11T00:21:23.100Z,98568.81
2018-02-11T00:23:50.622Z,98564.91
2018-02-11T00:26:18.308Z,98565.28
2018-02-11T00:28:45.902Z,98562.27
2018-02-11T00:31:13.479Z,98557.80
2018-02-11T00:33:41.292Z,98558.61
2018-02-11T00:36:08.827Z,98548.90
2018-02-11T00:38:36.408Z,98545.53
2018-02-11T00:41:04.462Z,98541.64
2018-02-11T00:43:33.526Z,98541.05
2018-02-11T00:46:01.517Z,98536.02
2018-02-11T00:48:29.078Z,98529.23
2018-02-11T00:50:56.872Z,98532.63
2018-02-11T00:53:24.398Z,98524.14
2018-02-11T00:55:51.971Z,98529.30
2018-02-11T00:58:19.503Z,98524.63
2018-02-11T01:00:47.074Z,98523.83
2018-02-11T01:03:14.639Z,98524.30
2018-02-11T01:05:42.219Z,98517.08
2018-02-11T01:08:09.755Z,98514.94
2018-02-11T01:10:37.322Z,98520.50
2018-02-11T01:13:04.846Z,98517.55
2018-02-11T01:15:32.402Z,98519.98
2018-02-11T01:17:59.921Z,98517.02
2018-02-11T01:20:27.515Z,98516.73
2018-02-11T01:22:55.039Z,98516.57
2018-02-11T01:25:22.571Z,98516.24
2018-02-11T01:27:50.332Z,98516.63
2018-02-11T01:30:17.862Z,98518.41
2018-02-11T01:32:45.442Z,98515.33
2018-02-11T01:35:12.973Z,98508.43
2018-02-11T01:37:40.507Z,98506.06
2018-02-11T01:40:08.087Z,98508.21
2018-02-11T01:42:36.075Z,98501.45
2018-02-11T01:45:03.610Z,98505.41
2018-02-11T01:47:31.152Z,98501.69
2018-02-11T01:50:10.334Z,98502.41
2018-02-11T01:52:37.858Z,98498.24
2018-02-11T01:55:05.431Z,98492.31
2018-02-11T01:57:33.218Z,98496.27
2018-02-11T02:00:00.801Z,98498.50
2018-02-11T02:02:28.819Z,98494.67
2018-02-11T02:04:56.346Z,98486.38
2018-02-11T02:07:23.878Z,98487.52
2018-02-11T02:09:51.437Z,98482.38
2018-02-11T02:12:19.410Z,98487.81
2018-02-11T02:14:47.274Z,98485.41
2018-02-11T02:17:14.801Z,98486.36
2018-02-11T02:19:42.335Z,98483.66
2018-02-11T02:22:09.907Z,98486.05
2018-02-11T02:24:37.473Z,98480.41
2018-02-11T02:27:05.069Z,98481.55
2018-02-11T02:29:32.602Z,98482.25
2018-02-11T02:32:00.142Z,98478.71
2018-02-11T02:34:27.716Z,98483.47
2018-02-11T02:36:55.242Z,98483.84
2018-02-11T02:39:23.422Z,98473.98
2018-02-11T02:41:50.999Z,98480.12
2018-02-11T02:44:19.013Z,98479.16
2018-02-11T02:46:46.545Z,98483.46
2018-02-11T02:49:14.109Z,98486.97
2018-02-11T02:51:41.646Z,98481.97
2018-02-11T02:54:09.388Z,98483.69
2018-02-11T02:56:36.929Z,98489.81
2018-02-11T02:59:04.481Z,98487.44
2018-02-11T03:01:32.052Z,98485.67
2018-02-11T03:03:59.587Z,98485.34
2018-02-11T03:06:27.285Z,98486.23
2018-02-11T03:08:54.809Z,98488.14
2018-02-11T03:11:22.369Z,98485.70
2018-02-11T03:13:49.896Z,98484.08
2018-02-11T03:16:17.470Z,98490.97
2018-02-11T03:18:44.998Z,98490.09
2018-02-11T03:21:12.697Z,98485.13
2018-02-11T03:23:40.218Z,98488.23
2018-02-11T03:26:07.773Z,98493.14
2018-02-11T03:28:35.893Z,98492.40
2018-02-11T03:31:03.883Z,98498.63
2018-02-11T03:33:31.418Z,98498.48
2018-02-11T03:35:58.995Z,98505.22
2018-02-11T03:38:26.563Z,98507.47
2018-02-11T03:40:54.155Z,98505.53
2018-02-11T03:43:21.722Z,98503.43
2018-02-11T03:45:49.425Z,98503.93
2018-02-11T03:48:16.968Z,98500.06
2018-02-11T03:50:44.490Z,98502.45
2018-02-11T03:53:12.664Z,98504.70
2018-02-11T03:55:40.189Z,98503.19
2018-02-11T03:58:07.722Z,98496.71
2018-02-11T04:00:35.303Z,98502.80
2018-02-11T04:03:02.848Z,98500.82
2018-02-11T04:05:30.418Z,98503.55
2018-02-11T04:07:58.012Z,98500.31
2018-02-11T04:10:25.541Z,98502.83
2018-02-11T04:12:53.135Z,98500.17
2018-02-11T04:15:20.658Z,98494.02
2018-02-11T04:17:48.810Z,98494.89
2018-02-11T04:20:16.850Z,98504.88
2018-02-11T04:22:44.393Z,98500.28
2018-02-11T04:25:11.962Z,98499.91
2018-02-11T04:27:39.507Z,98495.16
2018-02-11T04:32:34.194Z,98502.23
2018-02-11T04:35:01.888Z,98495.07
2018-02-11T04:37:29.409Z,98495.56
2018-02-11T04:39:56.937Z,98495.36
2018-02-11T04:42:24.549Z,98488.17
2018-02-11T04:44:52.074Z,98482.86
2018-02-11T04:47:19.981Z,98491.07
2018-02-11T04:49:47.653Z,98489.19
2018-02-11T04:52:15.213Z,98489.22
2018-02-11T04:54:42.777Z,98491.05
2018-02-11T04:57:10.317Z,98491.01
2018-02-11T04:59:37.847Z,98495.80
2018-02-11T05:02:05.409Z,98496.50
2018-02-11T05:04:32.947Z,98507.23
2018-02-11T05:07:00.523Z,98508.48
2018-02-11T05:09:28.072Z,98506.57
2018-02-11T05:11:55.654Z,98506.94
2018-02-11T05:14:23.195Z,98508.30
2018-02-11T05:16:51.291Z,98513.56
2018-02-11T05:19:18.821Z,98505.62
2018-02-11T05:21:46.382Z,98511.02
2018-02-11T05:24:13.923Z,98509.13
2018-02-11T05:26:41.929Z,98507.77
2018-02-11T05:29:09.742Z,98506.52
2018-02-11T05:31:37.318Z,98508.55
2018-02-11T05:34:04.849Z,98503.83
2018-02-11T05:36:32.615Z,98507.51
2018-02-11T05:39:01.151Z,98515.18
2018-02-11T05:41:28.944Z,98513.06
2018-02-11T05:43:56.760Z,98510.73
2018-02-11T05:46:24.285Z,98518.48
2018-02-11T05:48:51.814Z,98515.37
2018-02-11T05:51:19.382Z,98518.61
2018-02-11T05:53:46.949Z,98520.35
2018-02-11T05:56:14.536Z,98514.27
2018-02-11T05:58:42.111Z,98519.45
2018-02-11T06:01:09.635Z,98524.47
2018-02-11T06:03:38.194Z,98524.53
2018-02-11T06:06:05.770Z,98526.94
2018-02-11T06:08:33.297Z,98529.58
2018-02-11T06:11:01.321Z,98534.02
2018-02-11T06:13:28.857Z,98528.41
2018-02-11T06:15:56.447Z,98529.61
2018-02-11T06:18:23.989Z,98528.59
2018-02-11T06:20:52.014Z,98533.05
2018-02-11T06:23:20.358Z,98523.92
2018-02-11T06:25:47.885Z,98531.47
2018-02-11T06:28:15.860Z,98534.22
2018-02-11T06:30:43.395Z,98535.95
2018-02-11T06:33:10.937Z,98536.46
2018-02-11T06:35:38.509Z,98531.25
2018-02-11T06:38:06.979Z,98532.50
2018-02-11T06:40:34.549Z,98538.26
2018-02-11T06:43:02.126Z,98531.45
2018-02-11T06:45:29.729Z,98538.33
2018-02-11T06:47:57.289Z,98529.36
2018-02-11T06:50:24.826Z,98534.15
2018-02-11T06:52:52.398Z,98525.05
2018-02-11T06:55:20.777Z,98528.48
2018-02-11T06:57:48.626Z,98536.27
2018-02-11T07:00:16.199Z,98527.34
2018-02-11T07:02:43.886Z,98531.41
2018-02-11T07:05:11.462Z,98540.26
2018-02-11T07:07:40.505Z,98532.66
2018-02-11T07:10:08.113Z,98531.66
2018-02-11T07:12:36.228Z,98536.48
2018-02-11T07:15:04.284Z,98525.45
2018-02-11T07:17:31.942Z,98526.50
2018-02-11T07:19:59.479Z,98527.53
2018-02-11T07:22:27.014Z,98529.37
2018-02-11T07:24:54.613Z,98530.43
2018-02-11T07:27:22.371Z,98522.82
2018-02-11T07:29:49.955Z,98530.47
2018-02-11T07:32:17.481Z,98530.78
2018-02-11T07:34:45.425Z,98523.66
2018-02-11T07:37:13.540Z,98520.58
2018-02-11T07:39:41.242Z,98522.41
2018-02-11T07:42:08.906Z,98521.56
2018-02-11T07:44:36.736Z,98520.88
2018-02-11T07:47:04.310Z,98518.92
2018-02-11T07:49:31.883Z,98519.41
2018-02-11T07:51:59.454Z,98518.88
2018-02-11T07:54:27.035Z,98515.37
2018-02-11T07:56:54.574Z,98514.36
2018-02-11T07:59:23.263Z,98521.61
2018-02-11T08:01:50.794Z,98523.85
2018-02-11T08:04:18.374Z,98521.53
2018-02-11T08:06:45.950Z,98521.12
2018-02-11T08:09:13.498Z,98520.64
2018-02-11T08:11:41.482Z,98525.20
2018-02-11T08:14:09.023Z,98522.78
2018-02-11T08:16:37.493Z,98524.67
2018-02-11T08:19:05.066Z,98526.34
2018-02-11T08:21:32.609Z,98526.69
2018-02-11T08:24:01.462Z,98525.90
2018-02-11T08:26:29.558Z,98525.05
2018-02-11T08:28:57.497Z,98530.16
2018-02-11T08:31:25.039Z,98532.75
2018-02-11T08:33:52.922Z,98535.83
2018-02-11T08:36:20.661Z,98533.89
2018-02-11T08:38:48.203Z,98535.62
2018-02-11T08:41:16.041Z,98535.67
2018-02-11T08:43:43.932Z,98538.88
2018-02-11T08:46:11.469Z,98533.24
2018-02-11T08:48:39.002Z,98534.62
2018-02-11T08:51:06.595Z,98544.55
2018-02-11T08:53:34.465Z,98540.64
2018-02-11T08:56:02.330Z,98546.19
2018-02-11T08:58:29.911Z,98553.95
2018-02-11T09:00:57.437Z,98547.44
2018-02-11T09:03:25.944Z,98549.09
2018-02-11T09:05:53.610Z,98556.73
2018-02-11T09:08:21.849Z,98559.81
2018-02-11T09:10:50.107Z,98559.81
2018-02-11T09:13:18.088Z,98564.61
2018-02-11T09:15:45.882Z,98565.38
2018-02-11T09:18:13.743Z,98563.61
2018-02-11T09:20:42.245Z,98567.70
2018-02-11T09:23:10.239Z,98570.19
2018-02-11T09:25:38.103Z,98567.00
2018-02-11T09:28:05.893Z,98567.31
2018-02-11T09:30:34.595Z,98571.21
2018-02-11T09:33:02.594Z,98568.33
2018-02-11T09:35:30.165Z,98567.59
2018-02-11T09:37:58.058Z,98568.20
2018-02-11T09:40:26.275Z,98569.42
2018-02-11T09:42:53.805Z,98569.90
2018-02-11T09:45:21.379Z,98568.27
2018-02-11T09:47:48.921Z,98568.70
2018-02-11T09:50:17.016Z,98563.11
2018-02-11T09:52:44.586Z,98564.81
2018-02-11T09:55:12.171Z,98570.81
2018-02-11T09:57:40.416Z,98567.91
2018-02-11T10:00:08.004Z,98565.88
2018-02-11T10:02:35.573Z,98569.66
2018-02-11T10:05:03.220Z,98566.80
2018-02-11T10:07:30.786Z,98571.41
2018-02-11T10:09:58.370Z,98571.27
2018-02-11T10:12:26.051Z,98573.37
2018-02-11T10:14:53.664Z,98570.67
2018-02-11T10:17:21.205Z,98566.63
2018-02-11T10:19:48.818Z,98572.84
2018-02-11T10:22:16.418Z,98577.15
2018-02-11T10:24:44.003Z,98574.41
2018-02-11T10:27:11.558Z,98569.42
2018-02-11T10:29:39.770Z,98570.30
2018-02-11T10:32:07.304Z,98564.70
2018-02-11T10:34:34.917Z,98566.16
2018-02-11T10:37:02.500Z,98571.36
2018-02-11T10:39:30.039Z,98567.01
2018-02-11T10:41:57.626Z,98569.83
2018-02-11T10:44:25.544Z,98570.11
2018-02-11T10:46:53.119Z,98564.44
2018-02-11T10:49:21.109Z,98565.42
2018-02-11T10:51:48.699Z,98571.94
2018-02-11T10:54:16.328Z,98566.30
2018-02-11T10:56:44.312Z,98568.67
2018-02-11T10:59:12.022Z,98568.02
2018-02-11T11:01:39.558Z,98562.91
2018-02-11T11:04:07.185Z,98565.06
2018-02-11T11:06:35.540Z,98564.08
2018-02-11T11:09:03.105Z,98563.20
2018-02-11T11:11:30.858Z,98560.38
2018-02-11T11:13:58.450Z,98559.42
2018-02-11T11:16:26.206Z,98559.93
2018-02-11T11:18:54.688Z,98551.20
2018-02-11T11:21:22.267Z,98549.81
2018-02-11T11:23:49.852Z,98550.52
2018-02-11T11:26:18.172Z,98551.41
2018-02-11T11:28:46.039Z,98550.78
2018-02-11T11:31:13.800Z,98541.33
2018-02-11T11:33:41.387Z,98542.47
2018-02-11T11:36:09.588Z,98541.31
2018-02-11T11:38:38.294Z,98541.40
2018-02-11T11:41:05.831Z,98543.00
2018-02-11T11:43:37.290Z,98535.39
2018-02-11T11:46:05.052Z,98540.34
2018-02-11T11:48:32.631Z,98539.12
2018-02-11T11:51:00.226Z,98532.71
2018-02-11T11:53:30.838Z,98532.17
2018-02-11T11:55:58.586Z,98540.44
2018-02-11T11:58:26.316Z,98537.17
2018-02-11T12:00:54.821Z,98541.05
2018-02-11T12:03:23.873Z,98540.36
2018-02-11T12:05:51.457Z,98540.45
2018-02-11T12:08:18.995Z,98545.20
2018-02-11T12:10:46.573Z,98545.37
2018-02-11T12:13:14.987Z,98550.56
2018-02-11T12:15:42.715Z,98541.77
2018-02-11T12:18:10.318Z,98540.13
2018-02-11T12:20:38.822Z,98539.64
2018-02-11T12:23:06.640Z,98540.00
2018-02-11T12:25:34.461Z,98546.11
2018-02-11T12:28:01.999Z,98544.06
2018-02-11T12:30:29.591Z,98546.16
2018-02-11T12:32:57.834Z,98552.56
2018-02-11T12:35:26.152Z,98549.27
2018-02-11T12:37:54.371Z,98549.64
2018-02-11T12:40:21.938Z,98553.08
2018-02-11T12:42:49.527Z,98553.53
2018-02-11T12:45:17.486Z,98551.20
2018-02-11T12:47:45.192Z,98558.20
2018-02-11T12:50:12.774Z,98555.59
2018-02-11T12:52:41.194Z,98562.01
2018-02-11T12:55:09.211Z,98561.72
2018-02-11T12:57:36.750Z,98565.95
2018-02-11T13:00:04.291Z,98565.55
2018-02-11T13:02:33.104Z,98565.94
2018-02-11T13:05:02.424Z,98567.56
2018-02-11T13:07:30.076Z,98567.74
2018-02-11T13:09:58.506Z,98569.41
2018-02-11T13:12:26.578Z,98573.38
2018-02-11T13:14:54.383Z,98573.61
2018-02-11T13:17:21.930Z,98577.49
2018-02-11T13:19:51.040Z,98580.83
2018-02-11T13:22:18.809Z,98578.87
2018-02-11T13:24:46.568Z,98583.55
2018-02-11T13:27:14.649Z,98579.62
2018-02-11T13:29:42.231Z,98588.11
2018-02-11T13:32:09.880Z,98583.55
2018-02-11T13:34:38.411Z,98587.75
2018-02-11T13:37:07.556Z,98583.48
2018-02-11T13:39:35.142Z,98594.11
2018-02-11T13:42:02.692Z,98584.00
2018-02-11T13:44:30.278Z,98584.42
2018-02-11T13:46:57.887Z,98592.22
2018-02-11T13:49:25.420Z,98585.66
2018-02-11T13:51:53.036Z,98593.55
2018-02-11T13:54:20.661Z,98592.25
2018-02-11T13:56:48.207Z,98594.98
2018-02-11T13:59:16.702Z,98593.19
2018-02-11T14:01:44.409Z,98596.84
2018-02-11T14:04:12.798Z,98596.81
2018-02-11T14:06:43.180Z,98600.80
2018-02-11T14:09:10.748Z,98596.73
2018-02-11T14:11:38.325Z,98600.33
2018-02-11T14:14:05.930Z,98602.30
2018-02-11T14:16:33.471Z,98598.17
2018-02-11T14:19:01.675Z,98595.60
2018-02-11T14:21:29.219Z,98593.88
2018-02-11T14:23:57.820Z,98598.94
2018-02-11T14:26:26.513Z,98588.24
2018-02-11T14:28:54.114Z,98594.48
2018-02-11T14:31:22.410Z,98591.74
2018-02-11T14:33:50.760Z,98598.09
2018-02-11T14:36:18.391Z,98595.19
2018-02-11T14:38:47.708Z,98595.41
2018-02-11T14:41:15.560Z,98600.64
2018-02-11T14:43:44.890Z,98599.19
2018-02-11T14:46:12.465Z,98599.19
2018-02-11T14:48:41.386Z,98596.33
2018-02-11T14:51:09.799Z,98594.78
2018-02-11T14:53:38.072Z,98606.56
2018-02-11T14:56:05.606Z,98606.72
2018-02-11T14:58:33.181Z,98609.46
2018-02-11T15:01:00.729Z,98608.22
2018-02-11T15:03:28.308Z,98610.43
2018-02-11T15:05:55.903Z,98615.38
2018-02-11T15:08:24.288Z,98613.56
2018-02-11T15:10:52.258Z,98618.37
2018-02-11T15:13:19.843Z,98615.58
2018-02-11T15:15:47.379Z,98617.67
2018-02-11T15:18:16.100Z,98620.52
2018-02-11T15:20:43.706Z,98620.99
2018-02-11T15:23:11.851Z,98625.34
2018-02-11T15:25:39.794Z,98617.14
2018-02-11T15:28:07.901Z,98623.83
2018-02-11T15:30:35.993Z,98635.20
2018-02-11T15:33:03.570Z,98631.86
2018-02-11T15:35:31.367Z,98632.31
2018-02-11T15:38:00.163Z,98635.05
2018-02-11T15:40:27.707Z,98637.25
2018-02-11T15:42:56.739Z,98633.55
2018-02-11T15:45:24.327Z,98636.91
2018-02-11T15:47:53.632Z,98636.21
2018-02-11T15:50:23.010Z,98643.02
2018-02-11T15:52:50.593Z,98644.73
2018-02-11T15:55:20.955Z,98649.97
2018-02-11T15:57:48.538Z,98653.06
2018-02-11T16:00:17.586Z,98652.44
2018-02-11T16:02:46.665Z,98653.84
2018-02-11T16:05:14.234Z,98656.24
2018-02-11T16:07:42.188Z,98663.50
2018-02-11T16:10:11.977Z,98659.97
2018-02-11T16:12:39.564Z,98669.44
2018-02-11T16:15:09.633Z,98669.10
2018-02-11T16:17:37.203Z,98677.59
2018-02-11T16:20:05.168Z,98682.47
2018-02-11T16:22:33.430Z,98684.92
2018-02-11T16:25:01.925Z,98691.22
2018-02-11T16:27:30.000Z,98693.90
2018-02-11T16:29:57.944Z,98687.66
2018-02-11T16:32:26.624Z,98697.71
2018-02-11T16:34:54.237Z,98704.39
2018-02-11T16:37:22.185Z,98704.90
2018-02-11T16:39:51.576Z,98710.34
2018-02-11T16:42:20.533Z,98715.05
2018-02-11T16:44:49.810Z,98721.59
2018-02-11T16:47:17.404Z,98721.06
2018-02-11T16:49:44.946Z,98728.87
2018-02-11T16:52:12.514Z,98728.87
2018-02-11T16:54:40.097Z,98727.40
2018-02-11T16:57:07.678Z,98731.98
2018-02-11T16:59:35.252Z,98735.37
2018-02-11T17:02:02.837Z,98740.56
2018-02-11T17:04:30.793Z,98745.33
2018-02-11T17:06:58.378Z,98749.73
2018-02-11T17:09:26.779Z,98753.94
2018-02-11T17:11:54.501Z,98750.92
2018-02-11T17:14:22.039Z,98762.76
2018-02-11T17:16:50.207Z,98753.28
2018-02-11T17:19:18.285Z,98765.19
2018-02-11T17:21:46.311Z,98763.26
2018-02-11T17:24:15.515Z,98767.81
2018-02-11T17:26:43.614Z,98771.55
2018-02-11T17:29:11.654Z,98770.45
2018-02-11T17:31:39.621Z,98772.70
2018-02-11T17:34:10.019Z,98773.70
2018-02-11T17:36:38.648Z,98772.02
2018-02-11T17:39:06.196Z,98784.39
2018-02-11T17:41:35.998Z,98786.61
2018-02-11T17:44:03.920Z,98786.22
2018-02-11T17:46:31.460Z,98793.62
2018-02-11T17:49:00.048Z,98795.55
2018-02-11T17:51:27.647Z,98792.14
2018-02-11T17:53:57.509Z,98794.98
2018-02-11T17:56:25.098Z,98797.52
2018-02-11T17:58:53.428Z,98794.83
2018-02-11T18:01:21.012Z,98795.73
2018-02-11T18:03:49.799Z,98807.27
2018-02-11T18:06:17.375Z,98805.11
2018-02-11T18:08:45.874Z,98806.46
2018-02-11T18:11:14.283Z,98811.91
2018-02-11T18:13:42.672Z,98815.27
2018-02-11T18:16:10.236Z,98813.02
2018-02-11T18:18:39.374Z,98823.33
2018-02-11T18:21:08.527Z,98829.83
2018-02-11T18:23:36.997Z,98829.20
2018-02-11T18:26:04.808Z,98836.69
2018-02-11T18:28:32.584Z,98836.66
2018-02-11T18:31:00.136Z,98838.78
2018-02-11T18:33:28.095Z,98839.55
2018-02-11T18:35:55.844Z,98838.62
2018-02-11T18:38:24.176Z,98844.30
2018-02-11T18:40:52.323Z,98846.19
2018-02-11T18:43:19.912Z,98849.77
2018-02-11T18:45:48.844Z,98850.80
2018-02-11T18:48:16.839Z,98852.95
2018-02-11T18:50:45.117Z,98857.70
2018-02-11T18:53:13.093Z,98865.02
2018-02-11T18:55:41.110Z,98862.97
2018-02-11T18:58:09.429Z,98872.83
2018-02-11T19:00:38.082Z,98872.46
2018-02-11T19:03:06.542Z,98879.94
2018-02-11T19:05:34.287Z,98880.96
2018-02-11T19:08:01.887Z,98876.98
2018-02-11T19:10:29.474Z,98884.75
2018-02-11T19:12:57.020Z,98885.58
2018-02-11T19:15:24.617Z,98885.86
2018-02-11T19:17:53.681Z,98890.02
2018-02-11T19:20:21.551Z,98884.78
2018-02-11T19:22:49.086Z,98894.19
2018-02-11T19:25:18.113Z,98895.49
2018-02-11T19:27:45.646Z,98891.05
2018-02-11T19:30:14.014Z,98898.11
2018-02-11T19:32:42.514Z,98897.02
2018-02-11T19:35:10.102Z,98896.56
2018-02-11T19:37:38.434Z,98901.58
2018-02-11T19:40:06.924Z,98905.20
2018-02-11T19:42:35.075Z,98907.28
2018-02-11T19:45:04.333Z,98903.61
2018-02-11T19:47:32.710Z,98903.16
2018-02-11T19:50:00.257Z,98911.95
2018-02-11T19:52:29.772Z,98911.85
2018-02-11T19:54:57.651Z,98915.00
2018-02-11T19:57:25.460Z,98914.30
2018-02-11T19:59:53.059Z,98914.62
2018-02-11T20:02:20.600Z,98919.20
2018-02-11T20:04:48.963Z,98920.17
2018-02-11T20:07:16.549Z,98922.88
2018-02-11T20:09:45.919Z,98919.62
2018-02-11T20:12:14.436Z,98922.78
2018-02-11T20:14:42.855Z,98927.97
2018-02-11T20:17:12.989Z,98920.72
2018-02-11T20:19:40.594Z,98924.34
2018-02-11T20:22:08.355Z,98927.11
2018-02-11T20:24:36.296Z,98931.77
2018-02-11T20:27:04.453Z,98935.42
2018-02-11T20:29:32.040Z,98941.11
2018-02-11T20:32:00.502Z,98939.77
2018-02-11T20:34:28.216Z,98935.03
2018-02-11T20:36:55.841Z,98945.03
2018-02-11T20:39:24.292Z,98944.52
2018-02-11T20:41:52.799Z,98953.78
2018-02-11T20:44:20.550Z,98945.42
2018-02-11T20:46:48.326Z,98951.67
2018-02-11T20:49:16.225Z,98948.40
2018-02-11T20:51:43.816Z,98949.71
2018-02-11T20:54:11.482Z,98950.20
2018-02-11T20:56:39.089Z,98951.34
2018-02-11T20:59:07.456Z,98956.64
2018-02-11T21:01:35.791Z,98956.02
2018-02-11T21:04:04.138Z,98955.28
2018-02-11T21:06:33.231Z,98955.20
2018-02-11T21:09:00.838Z,98961.41
2018-02-11T21:11:29.134Z,98956.01
2018-02-11T21:13:58.271Z,98954.51
2018-02-11T21:16:26.358Z,98962.61
2018-02-11T21:18:54.798Z,98966.47
2018-02-11T21:21:23.431Z,98964.50
2018-02-11T21:23:51.265Z,98966.09
2018-02-11T21:26:18.856Z,98972.13
2018-02-11T21:28:47.014Z,98963.81
2018-02-11T21:31:14.583Z,98970.52
2018-02-11T21:33:42.182Z,98975.30
2018-02-11T21:36:10.034Z,98975.45
2018-02-11T21:38:37.566Z,98972.67
2018-02-11T21:41:05.159Z,98986.20
2018-02-11T21:43:33.301Z,98985.41
2018-02-11T21:46:15.738Z,98982.11
2018-02-11T21:48:58.976Z,98982.98
2018-02-11T21:51:41.577Z,98989.25
2018-02-11T21:54:24.300Z,98986.77
2018-02-11T21:57:06.847Z,98990.88
2018-02-11T21:59:50.205Z,98992.30
2018-02-11T22:02:33.934Z,98987.06
2018-02-11T22:05:16.962Z,98992.47
2018-02-11T22:07:59.642Z,98993.89
2018-02-11T22:10:42.881Z,98993.63
2018-02-11T22:13:27.420Z,98993.03
2018-02-11T22:16:11.694Z,98995.80
2018-02-11T22:18:54.921Z,98993.48
2018-02-11T22:21:37.465Z,98993.97
2018-02-11T22:24:20.528Z,98998.22
2018-02-11T22:26:48.073Z,98997.56
2018-02-11T22:29:31.322Z,98996.52
2018-02-11T22:32:14.069Z,98994.70
2018-02-11T22:34:57.212Z,98996.75
2018-02-11T22:37:39.503Z,98997.11
2018-02-11T22:40:22.315Z,98999.41
2018-02-11T22:43:04.951Z,99002.25
2018-02-11T22:45:47.874Z,99001.52
2018-02-11T22:48:30.665Z,98999.50
2018-02-11T22:50:58.239Z,99003.25
2018-02-11T22:53:25.823Z,98997.05
2018-02-11T22:55:53.349Z,99003.11
2018-02-11T22:58:21.183Z,99002.64
2018-02-11T23:00:48.726Z,99002.42
2018-02-11T23:03:16.310Z,99010.77
2018-02-11T23:05:43.860Z,99004.80
2018-02-11T23:08:11.993Z,98995.25
2018-02-11T23:10:40.369Z,98993.33
2018-02-11T23:13:07.913Z,98999.75
2018-02-11T23:15:35.441Z,99000.25
2018-02-11T23:18:03.641Z,98995.87
2018-02-11T23:20:31.180Z,99002.88
2018-02-11T23:22:58.709Z,99000.84
2018-02-11T23:25:26.282Z,99001.36
2018-02-11T23:27:54.079Z,99002.34
2018-02-11T23:30:21.624Z,99005.01
2018-02-11T23:32:49.197Z,99008.99
2018-02-11T23:35:16.808Z,99016.41
2018-02-11T23:37:44.389Z,99016.70
2018-02-11T23:40:11.922Z,99019.91
2018-02-11T23:42:39.502Z,99024.87
2018-02-11T23:45:07.055Z,99025.53
2018-02-11T23:47:34.655Z,99026.48
2018-02-11T23:50:02.181Z,99023.30
2018-02-11T23:52:29.970Z,99022.61
2018-02-11T23:54:57.570Z,99024.97
2018-02-11T23:57:25.108Z,99032.09
2018-02-11T23:59:52.633Z,99031.45
